Map

Track Data

SID SEASON NUMBER BASIN SUBBASIN NAME ISO_TIME NATURE LAT LON WMO_WIND WMO_PRES WMO_AGENCY TRACK_TYPE DIST2LAND LANDFALL IFLAG USA_AGENCY USA_ATCF_ID USA_LAT USA_LON USA_RECORD USA_STATUS USA_WIND USA_PRES USA_SSHS USA_R34_NE USA_R34_SE USA_R34_SW USA_R34_NW USA_R50_NE USA_R50_SE USA_R50_SW USA_R50_NW USA_R64_NE USA_R64_SE USA_R64_SW USA_R64_NW USA_POCI USA_ROCI USA_RMW USA_EYE TOKYO_LAT TOKYO_LON TOKYO_GRADE TOKYO_WIND TOKYO_PRES TOKYO_R50_DIR TOKYO_R50_LONG TOKYO_R50_SHORT TOKYO_R30_DIR TOKYO_R30_LONG TOKYO_R30_SHORT TOKYO_LAND CMA_LAT CMA_LON CMA_CAT CMA_WIND CMA_PRES HKO_LAT HKO_LON HKO_CAT HKO_WIND HKO_PRES NEWDELHI_LAT NEWDELHI_LON NEWDELHI_GRADE NEWDELHI_WIND NEWDELHI_PRES NEWDELHI_CI NEWDELHI_DP NEWDELHI_POCI REUNION_LAT REUNION_LON REUNION_TYPE REUNION_WIND REUNION_PRES REUNION_TNUM REUNION_CI REUNION_RMW REUNION_R34_NE REUNION_R34_SE REUNION_R34_SW REUNION_R34_NW REUNION_R50_NE REUNION_R50_SE REUNION_R50_SW REUNION_R50_NW REUNION_R64_NE REUNION_R64_SE REUNION_R64_SW REUNION_R64_NW BOM_LAT BOM_LON BOM_TYPE BOM_WIND BOM_PRES BOM_TNUM BOM_CI BOM_RMW BOM_R34_NE BOM_R34_SE BOM_R34_SW BOM_R34_NW BOM_R50_NE BOM_R50_SE BOM_R50_SW BOM_R50_NW BOM_R64_NE BOM_R64_SE BOM_R64_SW BOM_R64_NW BOM_ROCI BOM_POCI BOM_EYE BOM_POS_METHOD BOM_PRES_METHOD NADI_LAT NADI_LON NADI_CAT NADI_WIND NADI_PRES WELLINGTON_LAT WELLINGTON_LON WELLINGTON_WIND WELLINGTON_PRES DS824_LAT DS824_LON DS824_STAGE DS824_WIND DS824_PRES TD9636_LAT TD9636_LON TD9636_STAGE TD9636_WIND TD9636_PRES TD9635_LAT TD9635_LON TD9635_WIND TD9635_PRES TD9635_ROCI NEUMANN_LAT NEUMANN_LON NEUMANN_CLASS NEUMANN_WIND NEUMANN_PRES MLC_LAT MLC_LON MLC_CLASS MLC_WIND MLC_PRES USA_GUST BOM_GUST BOM_GUST_PER REUNION_GUST REUNION_GUST_PER USA_SEAHGT USA_SEARAD_NE USA_SEARAD_SE USA_SEARAD_SW USA_SEARAD_NW STORM_SPEED STORM_DIR
1994128N04155 1994 32 WP MM PAGE 1994-05-08 00:00:00 NR 4.00000 155.400 main 896 880 O_____________ jtwc_wp WP031994 4.00000 155.400 15 -1 11 280
1994128N04155 1994 32 WP MM PAGE 1994-05-08 03:00:00 NR 4.10007 154.850 main 880 860 P_____________ WP031994 4.10007 154.850 15 -1 11 280
1994128N04155 1994 32 WP MM PAGE 1994-05-08 06:00:00 NR 4.20000 154.300 main 860 846 O_____________ jtwc_wp WP031994 4.20000 154.300 15 -1 11 280
1994128N04155 1994 32 WP MM PAGE 1994-05-08 09:00:00 NR 4.29996 153.750 main 848 835 P_____________ WP031994 4.29996 153.750 15 -1 11 280
1994128N04155 1994 32 WP MM PAGE 1994-05-08 12:00:00 NR 4.40000 153.200 main 835 826 O_____________ jtwc_wp WP031994 4.40000 153.200 15 -1 11 280
1994128N04155 1994 32 WP MM PAGE 1994-05-08 15:00:00 NR 4.49248 152.642 main 828 821 P_____________ WP031994 4.49248 152.642 15 -1 11 280
1994128N04155 1994 32 WP MM PAGE 1994-05-08 18:00:00 NR 4.60000 152.100 main 828 825 O_____________ jtwc_wp WP031994 4.60000 152.100 15 -1 11 283
1994128N04155 1994 32 WP MM PAGE 1994-05-08 21:00:00 NR 4.73495 151.592 main 832 832 P_____________ WP031994 4.73495 151.592 15 -1 10 287
1994128N04155 1994 32 WP MM PAGE 1994-05-09 00:00:00 NR 4.90000 151.100 main 851 851 O_____________ jtwc_wp WP031994 4.90000 151.100 15 -1 11 289
1994128N04155 1994 32 WP MM PAGE 1994-05-09 03:00:00 NR 5.08496 150.600 main 874 874 P_____________ WP031994 5.08496 150.600 15 -1 11 292
1994128N04155 1994 32 WP MM PAGE 1994-05-09 06:00:00 NR 5.30000 150.100 main 881 878 O_____________ jtwc_wp WP031994 5.30000 150.100 15 -1 11 294
1994128N04155 1994 32 WP MM PAGE 1994-05-09 09:00:00 NR 5.53496 149.600 main 886 886 P_____________ WP031994 5.53496 149.600 17 -1 11 297
1994128N04155 1994 32 WP MM PAGE 1994-05-09 12:00:00 NR 5.80000 149.100 main 905 902 O_____________ jtwc_wp WP031994 5.80000 149.100 20 -1 11 299
1994128N04155 1994 32 WP MM PAGE 1994-05-09 15:00:00 NR 6.08496 148.600 main 928 927 P_____________ WP031994 6.08496 148.600 20 -1 12 301
1994128N04155 1994 32 WP MM PAGE 1994-05-09 18:00:00 NR 6.40000 148.100 main 955 954 O_____________ jtwc_wp WP031994 6.40000 148.100 20 -1 12 303
1994128N04155 1994 32 WP MM PAGE 1994-05-09 21:00:00 NR 6.74245 147.600 main 986 986 P_____________ WP031994 6.74245 147.600 20 -1 12 305
1994128N04155 1994 32 WP MM PAGE 1994-05-10 00:00:00 NR 7.10000 147.100 main 1030 1030 O_____________ jtwc_wp WP031994 7.10000 147.100 20 -1 12 305
1994128N04155 1994 32 WP MM PAGE 1994-05-10 03:00:00 NR 7.44994 146.600 main 1064 1064 P_____________ WP031994 7.44994 146.600 20 -1 12 305
1994128N04155 1994 32 WP MM PAGE 1994-05-10 06:00:00 NR 7.80000 146.100 main 1110 1110 O_____________ jtwc_wp WP031994 7.80000 146.100 20 -1 12 306
1994128N04155 1994 32 WP MM PAGE 1994-05-10 09:00:00 NR 8.15744 145.600 main 1159 1159 P_____________ WP031994 8.15744 145.600 20 -1 12 305
1994128N04155 1994 32 WP MM PAGE 1994-05-10 12:00:00 NR 8.50000 145.100 main 1199 1199 O_____________ jtwc_wp WP031994 8.50000 145.100 20 -1 12 304
1994128N04155 1994 32 WP MM PAGE 1994-05-10 15:00:00 NR 8.81490 144.607 main 1241 1241 P_____________ WP031994 8.81490 144.607 20 -1 12 301
1994128N04155 1994 32 WP MM PAGE 1994-05-10 18:00:00 NR 9.10000 144.100 main 1285 1285 O_____________ jtwc_wp WP031994 9.10000 144.100 20 -1 12 297
1994128N04155 1994 32 WP MM PAGE 1994-05-10 21:00:00 NR 9.35748 143.550 main 1333 1333 P_____________ WP031994 9.35748 143.550 22 -1 12 295
1994128N04155 1994 32 WP MM PAGE 1994-05-11 00:00:00 NR 9.60000 143.000 main 1363 1358 O_____________ jtwc_wp WP031994 9.60000 143.000 25 -1 12 295
1994128N04155 1994 32 WP MM PAGE 1994-05-11 03:00:00 NR 9.84992 142.485 main 1363 1363 P_____________ WP031994 9.84992 142.485 25 -1 11 297
1994128N04155 1994 32 WP MM PAGE 1994-05-11 06:00:00 NR 10.1000 142.000 main 1376 1373 O_____________ jtwc_wp WP031994 10.1000 142.000 25 -1 11 299
1994128N04155 1994 32 WP MM PAGE 1994-05-11 09:00:00 NR 10.3499 141.550 main 1382 1382 P_____________ WP031994 10.3499 141.550 25 -1 10 299
1994128N04155 1994 32 WP MM PAGE 1994-05-11 12:00:00 NR 10.6000 141.100 main 1401 1396 O_____________ jtwc_wp WP031994 10.6000 141.100 25 -1 11 298
1994128N04155 1994 32 WP MM PAGE 1994-05-11 15:00:00 NR 10.8425 140.600 main 1399 1399 P_____________ WP031994 10.8425 140.600 25 -1 11 312
1994128N04155 1994 32 WP MM PAGE 1994-05-11 18:00:00 TS 11.3000 140.300 1004 tokyo main 1440 1440 OOOO__________ jtwc_wp WP031994 11.1000 140.100 25 -1 11.7000 140.500 2 1004 0 0 0 11.7000 140.500 1 29 1002 11.3000 140.700 TD 30 1000 11 313
1994128N04155 1994 32 WP MM PAGE 1994-05-11 21:00:00 TS 11.5872 139.784 main 1454 1450 PPPP__________ WP031994 11.3924 139.635 27 -1 11.8054 139.813 2 1004 0 0 11.8053 139.885 1 29 1002 11.5403 139.953 TD 30 1000 12 296
1994128N04155 1994 32 WP MM PAGE 1994-05-12 00:00:00 TS 11.8154 139.223 1004 tokyo main 1451 1402 OOOO__________ jtwc_wp WP031994 11.7000 139.200 30 -1 11.9000 139.200 2 1004 0 0 0 11.9000 139.300 1 29 1002 11.8000 139.200 TD 30 1000 12 292
1994128N04155 1994 32 WP MM PAGE 1994-05-12 03:00:00 TS 12.0137 138.681 main 1402 1354 PPPP__________ WP031994 11.9924 138.785 30 -1 11.9848 138.712 2 1003 0 0 11.9849 138.770 1 29 1001 12.0925 138.455 TD 30 1000 11 292
1994128N04155 1994 32 WP MM PAGE 1994-05-12 06:00:00 TS 12.2250 138.200 1002 tokyo main 1354 1316 OOOO__________ jtwc_wp WP031994 12.3000 138.400 30 -1 12.1000 138.300 2 1002 0 0 0 12.1000 138.300 1 29 1000 12.4000 137.800 TD 30 1000 10 297
1994128N04155 1994 32 WP MM PAGE 1994-05-12 09:00:00 TS 12.4686 137.779 main 1317 1277 PPPP__________ WP031994 12.6425 138.035 32 -1 12.2699 137.900 2 1002 0 0 12.2698 137.892 1 29 1000 12.6923 137.290 TD 32 997 9 304
1994128N04155 1994 32 WP MM PAGE 1994-05-12 12:00:00 TS 12.7500 137.400 1002 tokyo main 1278 1239 OOOO__________ jtwc_wp WP031994 13.0000 137.700 35 0 12.5000 137.500 2 1002 0 0 0 12.5000 137.500 1 29 1000 13.0000 136.900 TS 35 995 10 308
1994128N04155 1994 32 WP MM PAGE 1994-05-12 15:00:00 TS 13.0619 137.012 main 1241 1213 PPPP__________ WP031994 13.3499 137.392 37 0 12.7700 137.042 2 1001 0 0 12.7700 137.042 1 29 1000 13.3574 136.570 TS 35 995 10 312
1994128N04155 1994 32 WP MM PAGE 1994-05-12 18:00:00 TS 13.4000 136.650 1000 tokyo main 1215 1180 OOOO__________ jtwc_wp WP031994 13.7000 137.100 40 0 13.1000 136.600 2 1000 0 0 0 13.1000 136.600 1 29 1000 13.7000 136.300 TS 35 995 10 316
1994128N04155 1994 32 WP MM PAGE 1994-05-12 21:00:00 TS 13.7593 136.313 main 1183 1157 PPPP__________ WP031994 14.0574 136.807 42 0 13.5150 136.205 2 999 0 0 13.5150 136.205 1 29 999 13.9500 136.035 TS 35 995 9 319
1994128N04155 1994 32 WP MM PAGE 1994-05-13 00:00:00 TS 14.1000 136.025 35 998 tokyo main 1157 1139 OOOO__________ jtwc_wp WP031994 14.4000 136.500 45 0 13.9000 135.900 3 35 998 0 9 120 120 0 13.9000 135.900 1 29 998 14.2000 135.800 TS 35 995 8 321
1994128N04155 1994 32 WP MM PAGE 1994-05-13 03:00:00 TS 14.3699 135.795 main 1141 1125 PPPP__________ WP031994 14.7075 136.142 47 0 14.1149 135.720 3 37 997 0 9 140 140 14.1149 135.727 1 33 996 14.5425 135.592 TS 40 992 7 322
1994128N04155 1994 32 WP MM PAGE 1994-05-13 06:00:00 TS 14.6250 135.600 40 996 tokyo main 1125 1109 OOOO__________ jtwc_wp WP031994 15.0000 135.800 50 0 14.3000 135.600 3 40 996 0 9 160 160 0 14.3000 135.600 2 38 995 14.9000 135.400 TS 45 990 7 324
1994128N04155 1994 32 WP MM PAGE 1994-05-13 09:00:00 TS 14.9156 135.381 main 1112 1097 PPPP__________ WP031994 15.3075 135.520 52 0 14.5775 135.435 3 40 995 0 9 160 160 14.5775 135.385 2 38 995 15.2000 135.185 TS 45 990 7 327
1994128N04155 1994 32 WP MM PAGE 1994-05-13 12:00:00 TS 15.2250 135.200 40 994 tokyo main 1100 1093 OOOO__________ jtwc_wp WP031994 15.6000 135.300 55 0 14.9000 135.300 3 40 994 0 9 160 160 0 14.9000 135.200 2 38 995 15.5000 135.000 TS 45 990 7 335
1994128N04155 1994 32 WP MM PAGE 1994-05-13 15:00:00 TS 15.5537 135.068 main 1104 1094 PPPP__________ WP031994 15.8650 135.105 57 0 15.2425 135.227 3 40 994 0 9 160 160 15.2425 135.112 2 38 992 15.8649 134.825 TS 45 990 7 345
1994128N04155 1994 32 WP MM PAGE 1994-05-13 18:00:00 TS 15.8750 135.025 40 994 tokyo main 1105 1105 OOOO__________ jtwc_wp WP031994 16.1000 135.000 60 0 15.6000 135.200 3 40 994 0 9 160 160 0 15.6000 135.100 2 38 990 16.2000 134.800 TS 45 990 6 2
1994128N04155 1994 32 WP MM PAGE 1994-05-13 21:00:00 TS 16.1613 135.082 main 1127 1127 PPPP__________ WP031994 16.3075 134.997 62 0 15.9575 135.170 3 42 992 0 9 180 180 15.9575 135.120 2 43 987 16.4226 135.040 TS 45 990 6 19
1994128N04155 1994 32 WP MM PAGE 1994-05-14 00:00:00 TS 16.4250 135.225 45 990 tokyo main 1146 1146 OOOO__________ jtwc_wp WP031994 16.5000 135.100 65 1 16.3000 135.200 3 45 990 0 9 200 200 0 16.3000 135.200 3 48 985 16.6000 135.400 TS 45 990 6 30
1994128N04155 1994 32 WP MM PAGE 1994-05-14 03:00:00 TS 16.6693 135.393 main 1179 1179 PPPP__________ WP031994 16.6775 135.270 67 1 16.6074 135.298 3 47 987 0 9 210 210 16.6074 135.305 3 48 985 16.7850 135.700 TS 47 987 6 38
1994128N04155 1994 32 WP MM PAGE 1994-05-14 06:00:00 TS 16.9250 135.625 50 985 tokyo main 1207 1207 OOOO__________ jtwc_wp WP031994 16.9000 135.500 70 1 16.9000 135.500 4 50 985 0 9 220 220 0 16.9000 135.500 3 48 985 17.0000 136.000 STS 50 985 7 43
1994128N04155 1994 32 WP MM PAGE 1994-05-14 09:00:00 TS 17.2113 135.928 main 1250 1250 PPPP__________ WP031994 17.2200 135.743 72 1 17.1776 135.828 4 52 982 0 9 230 230 17.1776 135.835 3 48 985 17.2700 136.308 STS 52 985 9 44
1994128N04155 1994 32 WP MM PAGE 1994-05-14 12:00:00 TS 17.5500 136.250 55 980 tokyo main 1308 1303 OOOO__________ jtwc_wp WP031994 17.6000 136.000 75 1 17.5000 136.200 4 55 980 9 40 40 9 240 240 0 17.5000 136.200 3 48 985 17.6000 136.600 STS 55 985 9 38
1994128N04155 1994 32 WP MM PAGE 1994-05-14 15:00:00 TS 17.9506 136.533 main 1347 1347 PPPP__________ WP031994 17.9850 136.250 77 1 17.9275 136.522 4 55 980 9 40 40 9 240 240 17.9199 136.473 3 53 982 17.9700 136.887 STS 57 980 10 30
1994128N04155 1994 32 WP MM PAGE 1994-05-14 18:00:00 TS 18.4000 136.775 55 980 tokyo main 1396 1396 OOOO__________ jtwc_wp WP031994 18.4000 136.500 80 1 18.4000 136.800 4 55 980 9 40 40 9 240 240 0 18.4000 136.700 3 58 980 18.4000 137.100 STS 60 975 10 24
1994128N04155 1994 32 WP MM PAGE 1994-05-14 21:00:00 TS 18.8637 136.971 main 1441 1441 PPPP__________ WP031994 18.8350 136.758 82 1 18.8349 137.023 4 57 977 9 45 45 9 240 240 18.8925 136.923 3 63 977 18.8924 137.180 STS 62 972 10 19
1994128N04155 1994 32 WP MM PAGE 1994-05-15 00:00:00 TS 19.3500 137.125 60 975 tokyo main 1446 1410 OOOO__________ jtwc_wp WP031994 19.3000 137.000 85 2 19.3000 137.200 4 60 975 9 50 50 9 240 240 0 19.4000 137.100 4 68 975 19.4000 137.200 T 65 970 10 15
1994128N04155 1994 32 WP MM PAGE 1994-05-15 03:00:00 TS 19.8499 137.245 main 1410 1365 PPPP__________ WP031994 19.7924 137.200 87 2 19.8500 137.358 4 62 972 9 55 55 9 240 240 19.8999 137.193 4 68 972 19.8575 137.228 T 67 967 10 13
1994128N04155 1994 32 WP MM PAGE 1994-05-15 06:00:00 TS 20.3500 137.375 65 970 tokyo main 1360 1325 OOOO__________ jtwc_wp WP031994 20.3000 137.400 90 2 20.4000 137.500 5 65 970 9 60 60 9 240 240 0 20.4000 137.300 4 68 970 20.3000 137.300 T 70 965 10 17
1994128N04155 1994 32 WP MM PAGE 1994-05-15 09:00:00 TS 20.8250 137.565 main 1330 1293 PPPP__________ WP031994 20.8000 137.635 90 2 20.8574 137.635 5 67 967 9 65 65 9 250 250 20.9000 137.527 4 68 967 20.7425 137.463 T 70 965 10 23
1994128N04155 1994 32 WP MM PAGE 1994-05-15 12:00:00 TS 21.3000 137.800 70 965 tokyo main 1293 1256 OOOO__________ jtwc_wp WP031994 21.3000 137.900 90 2 21.3000 137.800 5 70 965 9 70 70 9 260 260 0 21.4000 137.800 4 68 965 21.2000 137.700 T 70 965 11 24
1994128N04155 1994 32 WP MM PAGE 1994-05-15 15:00:00 TS 21.7998 138.040 main 1256 1224 PPPP__________ WP031994 21.7998 138.170 90 2 21.7924 138.013 5 70 965 9 70 70 9 260 260 21.9072 138.013 4 68 965 21.6999 137.963 T 70 965 11 27
1994128N04155 1994 32 WP MM PAGE 1994-05-15 18:00:00 TS 22.3000 138.350 70 965 tokyo main 1224 1200 OOOO__________ jtwc_wp WP031994 22.3000 138.500 90 2 22.3000 138.300 5 70 965 9 70 70 9 260 260 0 22.4000 138.300 4 68 965 22.2000 138.300 T 70 965 12 34
1994128N04155 1994 32 WP MM PAGE 1994-05-15 21:00:00 TS 22.7767 138.748 main 1200 1186 PPPP__________ WP031994 22.7998 138.905 87 2 22.7921 138.633 5 70 965 9 70 70 9 260 260 22.8575 138.748 4 68 967 22.6573 138.705 T 67 967 13 41
1994128N04155 1994 32 WP MM PAGE 1994-05-16 00:00:00 TS 23.2500 139.250 70 965 tokyo main 1178 1147 OOOO__________ jtwc_wp WP031994 23.3000 139.400 85 2 23.3000 139.100 5 70 965 9 70 70 9 260 260 0 23.3000 139.300 4 68 970 23.1000 139.200 T 65 970 14 46
1994128N04155 1994 32 WP MM PAGE 1994-05-16 03:00:00 TS 23.7401 139.833 main 1150 1119 PPPP__________ WP031994 23.7924 139.970 85 2 23.8536 139.759 5 70 965 9 70 70 9 250 250 23.7570 139.855 4 68 970 23.5571 139.748 T 65 970 15 50
1994128N04155 1994 32 WP MM PAGE 1994-05-16 06:00:00 TS 24.2250 140.500 70 965 tokyo main 1123 1103 OOOO__________ jtwc_wp WP031994 24.3000 140.600 85 2 24.4000 140.500 5 70 965 9 70 70 9 240 240 0 24.2000 140.500 4 68 970 24.0000 140.400 T 65 970 16 53
1994128N04155 1994 32 WP MM PAGE 1994-05-16 09:00:00 TS 24.6836 141.215 70 970 tokyo main 1103 1093 POPP__________ WP031994 24.8346 141.228 82 1 24.9000 141.200 5 70 970 9 40 40 9 240 240 0 24.6076 141.278 4 68 972 24.3923 141.156 T 62 972 16 56
1994128N04155 1994 32 WP MM PAGE 1994-05-16 12:00:00 TS 25.1250 141.950 60 975 tokyo main 1103 1075 OOOO__________ jtwc_wp WP031994 25.4000 141.900 80 1 25.3000 141.800 4 60 975 9 40 40 9 240 240 0 25.0000 142.100 4 68 975 24.8000 142.000 STS 60 975 16 57
1994128N04155 1994 32 WP MM PAGE 1994-05-16 15:00:00 TS 25.5715 142.711 60 975 tokyo main 1071 1040 POPP__________ WP031994 25.9848 142.636 77 1 25.7000 142.500 4 60 975 9 40 40 9 240 240 0 25.3464 142.822 4 68 975 25.2547 142.886 STS 57 977 18 55
1994128N04155 1994 32 WP MM PAGE 1994-05-16 18:00:00 TS 26.1250 143.550 60 980 tokyo main 1043 1010 OOOO__________ jtwc_wp WP031994 26.6000 143.400 75 1 26.3000 143.400 4 60 980 9 40 40 9 220 220 0 25.8000 143.600 4 68 975 25.8000 143.800 STS 55 980 20 53
1994128N04155 1994 32 WP MM PAGE 1994-05-16 21:00:00 TS 26.7628 144.456 60 980 tokyo main 1004 966 POPP__________ WP031994 27.2419 144.136 70 1 26.9000 144.300 4 60 980 9 40 40 9 220 220 0 26.4765 144.643 4 63 977 26.4327 144.745 STS 50 985 22 48
1994128N04155 1994 32 WP MM PAGE 1994-05-17 00:00:00 TS 27.6250 145.400 50 985 tokyo main 966 923 OOOO__________ jtwc_wp WP031994 27.9000 144.900 65 1 28.1000 145.500 4 50 985 0 9 200 200 0 27.3000 145.600 3 58 980 27.2000 145.600 TS 45 990 22 41
1994128N04155 1994 32 WP MM PAGE 1994-05-17 03:00:00 TS 28.4138 146.048 main 923 889 PPPP__________ WP031994 28.5421 145.729 60 0 28.7811 146.134 4 47 987 0 9 175 175 28.2059 146.112 3 53 982 28.1261 146.217 TS 42 992 19 35
1994128N04155 1994 32 WP MM PAGE 1994-05-17 06:00:00 TS 29.1500 146.600 45 990 tokyo main 886 875 OOOO__________ jtwc_wp WP031994 29.2000 146.600 55 0 29.2000 146.500 3 45 990 0 9 150 150 0 29.1000 146.500 3 48 985 29.1000 146.800 TS 40 995 18 37
1994128N04155 1994 32 WP MM PAGE 1994-05-17 09:00:00 TS 29.8529 147.269 main 874 871 PPPP__________ WP031994 29.8844 147.486 52 0 29.7113 147.020 3 45 991 0 9 150 150 29.8288 147.012 3 43 988 29.9872 147.556 TS 40 995 19 42
1994128N04155 1994 32 WP MM PAGE 1994-05-17 12:00:00 TS 30.5333 148.027 45 992 tokyo main 878 877 OOOO__________ jtwc_wp WP031994 30.6000 148.400 50 0 30.3000 147.700 3 45 992 0 9 150 150 0 30.5000 147.700 2 38 992 30.8000 148.400 TS 40 995 19 46
1994128N04155 1994 32 WP MM PAGE 1994-05-17 15:00:00 TS 31.1933 148.857 main 894 894 PPPP__________ WP031994 31.3490 149.321 47 0 30.9425 148.465 3 42 993 0 9 150 150 31.1220 148.570 2 38 993 31.5262 149.288 TS 40 995 22 49
1994128N04155 1994 32 WP MM PAGE 1994-05-17 18:00:00 TS 31.9846 149.985 40 994 tokyo main 934 934 OOOO__________ jtwc_wp WP031994 32.1000 150.300 45 0 31.9000 149.800 3 40 994 0 9 150 150 0 31.9000 149.800 2 38 995 32.2000 150.200 TS 40 995 30 52
1994128N04155 1994 32 WP MM PAGE 1994-05-17 21:00:00 TS 33.0762 151.666 main 1029 1029 PPP___________ WP031994 32.7990 151.357 42 0 33.4318 152.238 3 996 0 9 32.9979 151.402 2 33 996 TS 40 53
1994128N04155 1994 32 WP MM PAGE 1994-05-18 00:00:00 ET 34.3364 153.773 998 tokyo main 1181 1181 OOO___________ jtwc_wp WP031994 33.5000 152.500 40 0 35.0000 155.000 6 998 0 0 0 34.3000 153.500 9 29 998 43 57
1994128N04155 1994 32 WP MM PAGE 1994-05-18 03:00:00 ET 35.4268 155.973 main 1249 1225 PPP___________ WP031994 34.2403 153.722 40 0 35.9163 156.978 6 999 0 0 35.5307 156.094 9 29 998 46 58
1994128N04155 1994 32 WP MM PAGE 1994-05-18 06:00:00 ET 36.7778 158.556 1000 tokyo main 1226 1222 OOO___________ jtwc_wp WP031994 35.0000 155.000 40 0 37.0000 159.000 6 1000 0 0 0 37.0000 159.000 9 29 998 60 54
1994128N04155 1994 32 WP MM PAGE 1994-05-18 09:00:00 ET 38.9253 162.070 main 1244 1240 _PP___________ WP031994 -1 38.9031 162.008 6 998 0 0 38.9474 162.131 9 29 997 66 50
1994128N04155 1994 32 WP MM PAGE 1994-05-18 12:00:00 ET 41.0000 165.000 996 tokyo main 1239 1180 _OO___________ -1 41.0000 165.000 6 996 0 0 0 41.0000 165.000 9 29 996 54 44
1994128N04155 1994 32 WP MM PAGE 1994-05-18 15:00:00 ET 42.7756 167.033 main 1177 1113 _PP___________ -1 42.7756 167.033 6 994 0 0 42.7756 167.033 9 29 994 43 36
1994128N04155 1994 32 WP MM PAGE 1994-05-18 18:00:00 ET 44.5000 168.500 992 tokyo main 1109 1027 _OO___________ -1 44.5000 168.500 6 992 0 0 0 44.5000 168.500 9 29 992 40 29
1994128N04155 1994 32 WP MM PAGE 1994-05-18 21:00:00 ET 46.2940 169.789 main 1023 952 _PP___________ -1 46.3191 169.800 6 990 0 0 46.2437 169.767 9 29 992 39 26
1994128N04155 1994 32 WP MM PAGE 1994-05-19 00:00:00 ET 48.0000 171.000 988 tokyo main 950 915 _OO___________ -1 48.0000 171.000 6 988 0 0 0 48.0000 171.000 9 29 992 35 29
1994128N04155 1994 32 WP MM PAGE 1994-05-19 03:00:00 ET 49.3175 172.335 main 915 909 _P____________ -1 49.3175 172.335 6 986 0 0 9 32 38
1994128N04155 1994 32 WP MM PAGE 1994-05-19 06:00:00 ET 50.5000 174.000 984 tokyo main 923 923 _O____________ -1 50.5000 174.000 6 984 0 0 0 36 45
1994128N04155 1994 32 WP MM PAGE 1994-05-19 09:00:00 ET 51.8630 176.297 main 960 819 _P____________ -1 51.8630 176.297 6 984 0 0 40 51
1994128N04155 1994 32 WP MM PAGE 1994-05-19 12:00:00 ET 53.0000 179.000 984 tokyo main 805 632 _O____________ -1 53.0000 179.000 6 984 0 0 0 37 61
1994128N04155 1994 32 EP CP PAGE 1994-05-19 15:00:00 ET 53.6590 181.759 main 620 463 _P____________ -1 53.6590 -178.241 6 982 0 0 34 73
1994128N04155 1994 32 EP CP PAGE 1994-05-19 18:00:00 ET 54.0000 184.500 main 451 _O____________ -1 54.0000 184.500 6 980 0 0 0 33 78

Digital Typhoon Data and Search

About IBTrACS Database

This database is a web-friendly format of International Best Track Archive for Climate Stewardship (IBTrACS), a global best track data archive curated by NOAA dating back to 1842.

Updated: 2021-12-03